createdAt,value
2022-09-13T00:00:04.848Z,977.38
2022-09-13T00:01:04.891Z,977.35
2022-09-13T00:02:04.878Z,977.33
2022-09-13T00:03:04.821Z,977.38
2022-09-13T00:04:04.811Z,977.34
2022-09-13T00:05:04.794Z,977.26
2022-09-13T00:06:04.788Z,977.32
2022-09-13T00:07:04.780Z,977.31
2022-09-13T00:08:04.787Z,977.27
2022-09-13T00:09:04.755Z,977.32
2022-09-13T00:10:04.751Z,977.31
2022-09-13T00:11:04.739Z,977.31
2022-09-13T00:12:04.722Z,977.26
2022-09-13T00:13:04.736Z,977.23
2022-09-13T00:14:04.712Z,977.14
2022-09-13T00:15:04.703Z,977.03
2022-09-13T00:16:04.807Z,977.12
2022-09-13T00:17:04.685Z,977.09
2022-09-13T00:18:04.689Z,977.16
2022-09-13T00:19:04.664Z,977.12
2022-09-13T00:20:04.669Z,977.16
2022-09-13T00:21:04.648Z,977.19
2022-09-13T00:22:04.634Z,977.14
2022-09-13T00:23:04.675Z,977.15
2022-09-13T00:24:04.618Z,977.12
2022-09-13T00:25:04.608Z,977.17
2022-09-13T00:26:04.594Z,977.14
2022-09-13T00:27:04.587Z,977.11
2022-09-13T00:28:04.605Z,977.11
2022-09-13T00:29:04.570Z,977.21
2022-09-13T00:30:04.606Z,977.15
2022-09-13T00:31:04.544Z,977.12
2022-09-13T00:32:04.596Z,977.07
2022-09-13T00:33:04.624Z,977.11
2022-09-13T00:34:04.532Z,977.10
2022-09-13T00:35:04.507Z,977.15
2022-09-13T00:36:04.501Z,977.02
2022-09-13T00:37:04.493Z,977.09
2022-09-13T00:38:04.480Z,977.07
2022-09-13T00:39:04.495Z,977.09
2022-09-13T00:40:04.482Z,977.04
2022-09-13T00:41:04.447Z,977.03
2022-09-13T00:42:04.460Z,976.94
2022-09-13T00:43:04.424Z,976.91
2022-09-13T00:44:04.432Z,976.99
2022-09-13T00:45:04.411Z,977.05
2022-09-13T00:46:04.436Z,977.10
2022-09-13T00:47:04.391Z,977.12
2022-09-13T00:48:04.380Z,977.13
2022-09-13T00:49:04.388Z,977.09
2022-09-13T00:50:04.367Z,977.05
2022-09-13T00:51:04.356Z,977.04
2022-09-13T00:52:04.346Z,977.02
2022-09-13T00:53:04.350Z,977.06
2022-09-13T00:54:04.368Z,977.02
2022-09-13T00:55:04.319Z,976.99
2022-09-13T00:56:04.307Z,976.97
2022-09-13T00:57:04.294Z,976.88
2022-09-13T00:58:04.287Z,976.90
2022-09-13T00:59:04.315Z,976.86
2022-09-13T01:00:04.280Z,976.85
2022-09-13T01:01:04.267Z,976.80
2022-09-13T01:02:04.270Z,976.82
2022-09-13T01:03:04.240Z,976.75
2022-09-13T01:04:04.233Z,976.75
2022-09-13T01:05:04.230Z,976.71
2022-09-13T01:06:04.227Z,976.78
2022-09-13T01:07:04.195Z,976.71
2022-09-13T01:08:04.194Z,976.73
2022-09-13T01:09:04.181Z,976.73
2022-09-13T01:10:04.186Z,976.74
2022-09-13T01:11:04.162Z,976.68
2022-09-13T01:12:04.152Z,976.79
2022-09-13T01:13:04.146Z,976.72
2022-09-13T01:14:04.135Z,976.74
2022-09-13T01:15:04.144Z,976.76
2022-09-13T01:16:04.166Z,976.69
2022-09-13T01:17:04.106Z,976.75
2022-09-13T01:18:04.097Z,976.72
2022-09-13T01:19:04.090Z,976.72
2022-09-13T01:20:04.090Z,976.79
2022-09-13T01:21:04.065Z,976.71
2022-09-13T01:22:04.059Z,976.74
2022-09-13T01:23:04.042Z,976.74
2022-09-13T01:24:04.036Z,976.68
2022-09-13T01:25:04.042Z,976.66
2022-09-13T01:26:04.011Z,976.57
2022-09-13T01:27:04.006Z,976.57
2022-09-13T01:28:03.998Z,976.55
2022-09-13T01:29:03.987Z,976.56
2022-09-13T01:30:04.018Z,976.60
2022-09-13T01:31:03.962Z,976.51
2022-09-13T01:32:04.022Z,976.63
2022-09-13T01:33:03.947Z,976.50
2022-09-13T01:34:03.939Z,976.53
2022-09-13T01:35:03.955Z,976.51
2022-09-13T01:36:03.916Z,976.51
2022-09-13T01:37:03.903Z,976.51
2022-09-13T01:38:03.893Z,976.50
2022-09-13T01:39:03.887Z,976.50
2022-09-13T01:40:03.938Z,976.46
2022-09-13T01:41:04.883Z,976.43
2022-09-13T01:42:04.857Z,976.43
2022-09-13T01:43:03.842Z,976.45
2022-09-13T01:44:03.840Z,976.39
2022-09-13T01:45:03.826Z,976.36
2022-09-13T01:46:03.861Z,976.40
2022-09-13T01:47:03.804Z,976.34
2022-09-13T01:48:03.797Z,976.35
2022-09-13T01:49:03.785Z,976.28
2022-09-13T01:50:03.774Z,976.36
2022-09-13T01:51:03.803Z,976.35
2022-09-13T01:52:03.757Z,976.30
2022-09-13T01:53:03.751Z,976.25
2022-09-13T01:54:03.734Z,976.30
2022-09-13T01:55:03.727Z,976.27
2022-09-13T01:56:03.749Z,976.31
2022-09-13T01:57:03.700Z,976.26
2022-09-13T01:58:03.694Z,976.30
2022-09-13T01:59:03.682Z,976.29
2022-09-13T02:00:03.686Z,976.29
2022-09-13T02:01:03.728Z,976.21
2022-09-13T02:02:03.698Z,976.22
2022-09-13T02:03:03.645Z,976.25
2022-09-13T02:04:03.635Z,976.16
2022-09-13T02:05:03.618Z,976.13
2022-09-13T02:06:03.632Z,976.13
2022-09-13T02:07:03.621Z,976.15
2022-09-13T02:08:03.597Z,976.17
2022-09-13T02:09:03.587Z,976.19
2022-09-13T02:10:03.613Z,976.19
2022-09-13T02:11:03.559Z,976.20
2022-09-13T02:12:04.574Z,976.19
2022-09-13T02:13:03.544Z,976.21
2022-09-13T02:14:03.541Z,976.20
2022-09-13T02:15:03.525Z,976.20
2022-09-13T02:16:03.551Z,976.17
2022-09-13T02:17:03.516Z,976.20
2022-09-13T02:18:03.477Z,976.15
2022-09-13T02:19:03.480Z,976.15
2022-09-13T02:20:03.466Z,976.15
2022-09-13T02:21:03.465Z,976.14
2022-09-13T02:22:03.455Z,976.19
2022-09-13T02:23:03.443Z,976.19
2022-09-13T02:24:03.420Z,976.23
2022-09-13T02:25:03.408Z,976.21
2022-09-13T02:26:03.409Z,976.15
2022-09-13T02:27:03.410Z,976.14
2022-09-13T02:28:03.382Z,976.12
2022-09-13T02:29:03.367Z,976.13
2022-09-13T02:30:03.366Z,976.13
2022-09-13T02:31:03.372Z,976.20
2022-09-13T02:32:03.502Z,976.27
2022-09-13T02:33:03.331Z,976.22
2022-09-13T02:34:03.332Z,976.22
2022-09-13T02:35:03.317Z,976.21
2022-09-13T02:36:03.316Z,976.26
2022-09-13T02:37:03.324Z,976.25
2022-09-13T02:38:03.279Z,976.31
2022-09-13T02:39:03.267Z,976.29
2022-09-13T02:40:03.309Z,976.25
2022-09-13T02:41:03.255Z,976.20
2022-09-13T02:42:03.250Z,976.20
2022-09-13T02:43:03.250Z,976.24
2022-09-13T02:44:03.219Z,976.20
2022-09-13T02:45:03.202Z,976.18
2022-09-13T02:46:03.228Z,976.20
2022-09-13T02:47:03.191Z,976.11
2022-09-13T02:48:03.226Z,976.14
2022-09-13T02:49:03.166Z,976.11
2022-09-13T02:50:03.165Z,976.16
2022-09-13T02:51:03.149Z,976.17
2022-09-13T02:52:03.134Z,976.16
2022-09-13T02:53:03.144Z,976.22
2022-09-13T02:54:03.114Z,976.18
2022-09-13T02:55:03.098Z,976.23
2022-09-13T02:56:03.167Z,976.25
2022-09-13T02:57:03.094Z,976.24
2022-09-13T02:58:03.099Z,976.22
2022-09-13T02:59:03.068Z,976.23
2022-09-13T03:00:03.063Z,976.22
2022-09-13T03:01:03.087Z,976.27
2022-09-13T03:02:03.154Z,976.34
2022-09-13T03:03:03.062Z,976.31
2022-09-13T03:04:03.018Z,976.35
2022-09-13T03:05:03.001Z,976.33
2022-09-13T03:06:02.992Z,976.35
2022-09-13T03:07:02.982Z,976.39
2022-09-13T03:08:02.972Z,976.34
2022-09-13T03:09:02.973Z,976.32
2022-09-13T03:10:02.986Z,976.39
2022-09-13T03:11:02.950Z,976.39
2022-09-13T03:12:02.932Z,976.35
2022-09-13T03:13:02.918Z,976.31
2022-09-13T03:14:02.932Z,976.34
2022-09-13T03:15:02.903Z,976.26
2022-09-13T03:16:02.950Z,976.31
2022-09-13T03:17:02.885Z,976.25
2022-09-13T03:18:02.867Z,976.26
2022-09-13T03:19:02.904Z,976.22
2022-09-13T03:20:02.848Z,976.27
2022-09-13T03:21:02.839Z,976.18
2022-09-13T03:22:02.831Z,976.26
2022-09-13T03:23:02.825Z,976.18
2022-09-13T03:24:02.848Z,976.20
2022-09-13T03:25:02.804Z,976.23
2022-09-13T03:26:02.799Z,976.19
2022-09-13T03:27:02.786Z,976.20
2022-09-13T03:28:02.791Z,976.17
2022-09-13T03:29:02.761Z,976.22
2022-09-13T03:30:02.785Z,976.26
2022-09-13T03:31:02.746Z,976.18
2022-09-13T03:32:02.754Z,976.14
2022-09-13T03:33:02.722Z,976.26
2022-09-13T03:34:02.719Z,976.17
2022-09-13T03:35:02.730Z,976.17
2022-09-13T03:36:02.699Z,976.22
2022-09-13T03:37:02.687Z,976.19
2022-09-13T03:38:02.680Z,976.21
2022-09-13T03:39:02.668Z,976.17
2022-09-13T03:40:02.772Z,976.20
2022-09-13T03:41:02.644Z,976.17
2022-09-13T03:42:02.632Z,976.16
2022-09-13T03:43:02.624Z,976.19
2022-09-13T03:44:02.613Z,976.18
2022-09-13T03:45:02.658Z,976.12
2022-09-13T03:46:02.706Z,976.16
2022-09-13T03:47:02.586Z,976.21
2022-09-13T03:48:02.580Z,976.18
2022-09-13T03:49:02.558Z,976.18
2022-09-13T03:50:02.593Z,976.16
2022-09-13T03:51:02.575Z,976.14
2022-09-13T03:52:02.529Z,976.10
2022-09-13T03:53:02.523Z,976.15
2022-09-13T03:54:02.525Z,976.21
2022-09-13T03:55:02.508Z,976.14
2022-09-13T03:56:02.519Z,976.10
2022-09-13T03:57:02.480Z,976.13
2022-09-13T03:58:02.513Z,976.09
2022-09-13T03:59:02.469Z,976.07
2022-09-13T04:00:02.462Z,976.08
2022-09-13T04:01:02.530Z,976.05
2022-09-13T04:02:02.476Z,976.07
2022-09-13T04:03:02.435Z,976.08
2022-09-13T04:04:02.423Z,976.13
2022-09-13T04:05:02.420Z,976.04
2022-09-13T04:06:02.425Z,976.01
2022-09-13T04:07:02.407Z,976.00
2022-09-13T04:08:02.379Z,976.01
2022-09-13T04:09:02.365Z,976.02
2022-09-13T04:10:02.351Z,975.97
2022-09-13T04:11:02.421Z,976.02
2022-09-13T04:12:03.337Z,976.05
2022-09-13T04:13:02.330Z,976.06
2022-09-13T04:14:02.314Z,976.02
2022-09-13T04:15:02.299Z,976.07
2022-09-13T04:16:02.325Z,976.05
2022-09-13T04:17:02.302Z,975.99
2022-09-13T04:18:02.316Z,976.02
2022-09-13T04:19:02.273Z,976.00
2022-09-13T04:20:02.254Z,976.09
2022-09-13T04:21:02.242Z,976.04
2022-09-13T04:22:02.244Z,976.10
2022-09-13T04:23:02.231Z,976.06
2022-09-13T04:24:02.215Z,976.05
2022-09-13T04:25:02.844Z,976.09
2022-09-13T04:26:03.208Z,976.13
2022-09-13T04:27:02.204Z,976.07
2022-09-13T04:28:02.188Z,976.05
2022-09-13T04:29:02.167Z,976.07
2022-09-13T04:30:02.166Z,976.06
2022-09-13T04:31:02.145Z,976.02
2022-09-13T04:32:02.175Z,976.06
2022-09-13T04:33:02.127Z,976.01
2022-09-13T04:34:02.109Z,975.98
2022-09-13T04:35:02.112Z,976.00
2022-09-13T04:36:02.089Z,976.07
2022-09-13T04:37:02.117Z,976.03
2022-09-13T04:38:02.073Z,976.06
2022-09-13T04:39:02.069Z,976.09
2022-09-13T04:40:02.076Z,976.14
2022-09-13T04:41:02.041Z,976.12
2022-09-13T04:42:02.043Z,976.11
2022-09-13T04:43:02.041Z,976.12
2022-09-13T04:44:02.049Z,976.17
2022-09-13T04:45:02.024Z,976.18
2022-09-13T04:46:02.035Z,976.14
2022-09-13T04:47:01.972Z,976.19
2022-09-13T04:48:02.057Z,976.16
2022-09-13T04:49:01.960Z,976.21
2022-09-13T04:50:01.956Z,976.16
2022-09-13T04:51:01.944Z,976.10
2022-09-13T04:52:01.939Z,976.09
2022-09-13T04:53:01.956Z,976.13
2022-09-13T04:54:01.919Z,976.13
2022-09-13T04:55:01.909Z,976.19
2022-09-13T04:56:01.889Z,976.17
2022-09-13T04:57:01.894Z,976.16
2022-09-13T04:58:01.905Z,976.12
2022-09-13T04:59:01.861Z,976.12
2022-09-13T05:00:01.852Z,976.02
2022-09-13T05:01:01.865Z,975.98
2022-09-13T05:02:01.882Z,975.94
2022-09-13T05:03:01.820Z,975.84
2022-09-13T05:04:01.830Z,975.86
2022-09-13T05:05:01.802Z,975.89
2022-09-13T05:06:01.791Z,975.88
2022-09-13T05:07:01.782Z,975.84
2022-09-13T05:08:01.769Z,975.87
2022-09-13T05:09:01.780Z,975.85
2022-09-13T05:10:01.742Z,975.86
2022-09-13T05:11:01.743Z,975.79
2022-09-13T05:12:01.736Z,975.79
2022-09-13T05:13:01.718Z,975.75
2022-09-13T05:14:01.727Z,975.75
2022-09-13T05:15:01.706Z,975.73
2022-09-13T05:16:01.728Z,975.66
2022-09-13T05:17:01.680Z,975.63
2022-09-13T05:18:01.674Z,975.61
2022-09-13T05:19:01.696Z,975.70
2022-09-13T05:20:01.714Z,975.69
2022-09-13T05:21:01.627Z,975.71
2022-09-13T05:22:01.633Z,975.69
2022-09-13T05:23:01.618Z,975.74
2022-09-13T05:24:01.638Z,975.76
2022-09-13T05:25:01.595Z,975.70
2022-09-13T05:26:01.585Z,975.70
2022-09-13T05:27:01.568Z,975.76
2022-09-13T05:28:01.560Z,975.71
2022-09-13T05:29:01.555Z,975.77
2022-09-13T05:30:01.613Z,975.78
2022-09-13T05:31:01.579Z,975.84
2022-09-13T05:32:01.527Z,975.83
2022-09-13T05:33:01.530Z,975.89
2022-09-13T05:34:01.509Z,975.86
2022-09-13T05:35:01.512Z,975.90
2022-09-13T05:36:01.490Z,975.88
2022-09-13T05:37:01.486Z,975.95
2022-09-13T05:38:01.467Z,975.96
2022-09-13T05:39:28.605Z,975.94
2022-09-13T05:40:12.264Z,975.95
2022-09-13T05:41:03.435Z,975.88
2022-09-13T05:42:01.424Z,975.82
2022-09-13T05:43:01.410Z,975.82
2022-09-13T05:44:10.414Z,975.85
2022-09-13T05:45:03.399Z,975.85
2022-09-13T05:46:01.413Z,975.83
2022-09-13T05:47:01.369Z,975.84
2022-09-13T05:48:01.369Z,975.87
2022-09-13T05:49:01.353Z,975.84
2022-09-13T05:50:10.376Z,975.88
2022-09-13T05:51:03.332Z,975.91
2022-09-13T05:52:01.344Z,975.84
2022-09-13T05:53:01.307Z,975.85
2022-09-13T05:54:01.291Z,975.82
2022-09-13T05:55:01.331Z,975.85
2022-09-13T05:56:01.288Z,975.82
2022-09-13T05:57:01.271Z,975.83
2022-09-13T05:58:01.253Z,975.74
2022-09-13T05:59:01.277Z,975.73
2022-09-13T06:00:01.272Z,975.68
2022-09-13T06:01:01.217Z,975.64
2022-09-13T06:02:01.227Z,975.64
2022-09-13T06:03:01.240Z,975.68
2022-09-13T06:04:01.215Z,975.70
2022-09-13T06:05:01.200Z,975.80
2022-09-13T06:06:01.206Z,975.80
2022-09-13T06:07:01.159Z,975.78
2022-09-13T06:08:01.142Z,975.75
2022-09-13T06:09:01.154Z,975.70
2022-09-13T06:10:01.161Z,975.71
2022-09-13T06:11:01.139Z,975.65
2022-09-13T06:12:01.132Z,975.63
2022-09-13T06:13:01.098Z,975.69
2022-09-13T06:14:01.090Z,975.71
2022-09-13T06:15:01.084Z,975.76
2022-09-13T06:16:01.116Z,975.66
2022-09-13T06:17:01.054Z,975.72
2022-09-13T06:18:01.052Z,975.74
2022-09-13T06:19:01.056Z,975.63
2022-09-13T06:20:01.029Z,975.66
2022-09-13T06:21:01.067Z,975.71
2022-09-13T06:22:01.017Z,975.73
2022-09-13T06:23:01.001Z,975.69
2022-09-13T06:24:00.987Z,975.71
2022-09-13T06:25:00.969Z,975.71
2022-09-13T06:26:00.973Z,975.70
2022-09-13T06:27:00.958Z,975.68
2022-09-13T06:28:00.944Z,975.64
2022-09-13T06:29:00.939Z,975.61
2022-09-13T06:30:00.933Z,975.65
2022-09-13T06:31:00.937Z,975.64
2022-09-13T06:32:00.955Z,975.67
2022-09-13T06:33:00.904Z,975.72
2022-09-13T06:34:00.892Z,975.70
2022-09-13T06:35:00.884Z,975.64
2022-09-13T06:36:00.871Z,975.61
2022-09-13T06:37:00.890Z,975.61
2022-09-13T06:38:00.848Z,975.69
2022-09-13T06:39:00.843Z,975.72
2022-09-13T06:40:00.851Z,975.72
2022-09-13T06:41:00.825Z,975.71
2022-09-13T06:42:00.804Z,975.76
2022-09-13T06:43:00.832Z,975.67
2022-09-13T06:44:00.791Z,975.75
2022-09-13T06:45:00.787Z,975.75
2022-09-13T06:46:00.782Z,975.74
2022-09-13T06:47:00.744Z,975.75
2022-09-13T06:48:00.763Z,975.80
2022-09-13T06:49:00.737Z,975.81
2022-09-13T06:50:00.724Z,975.86
2022-09-13T06:51:00.709Z,975.81
2022-09-13T06:52:00.707Z,975.78
2022-09-13T06:53:00.701Z,975.77
2022-09-13T06:54:00.684Z,975.73
2022-09-13T06:55:00.662Z,975.75
2022-09-13T06:56:00.680Z,975.77
2022-09-13T06:57:00.650Z,975.84
2022-09-13T06:58:00.684Z,975.85
2022-09-13T06:59:00.615Z,975.93
2022-09-13T07:00:01.672Z,975.90
2022-09-13T07:01:00.700Z,975.84
2022-09-13T07:02:00.667Z,975.88
2022-09-13T07:03:00.626Z,975.88
2022-09-13T07:04:00.591Z,975.92
2022-09-13T07:05:00.607Z,975.91
2022-09-13T07:06:00.558Z,975.97
2022-09-13T07:07:00.594Z,975.91
2022-09-13T07:08:00.551Z,975.95
2022-09-13T07:09:00.552Z,976.01
2022-09-13T07:10:00.514Z,976.03
2022-09-13T07:11:00.516Z,976.03
2022-09-13T07:12:00.501Z,976.02
2022-09-13T07:13:00.502Z,976.05
2022-09-13T07:14:00.535Z,976.03
2022-09-13T07:15:00.464Z,976.02
2022-09-13T07:16:00.486Z,976.03
2022-09-13T07:17:00.456Z,976.00
2022-09-13T07:18:00.480Z,976.08
2022-09-13T07:19:00.462Z,976.01
2022-09-13T07:20:00.409Z,976.09
2022-09-13T07:21:00.400Z,976.07
2022-09-13T07:22:00.406Z,976.08
2022-09-13T07:23:00.386Z,976.00
2022-09-13T07:24:00.390Z,975.97
2022-09-13T07:25:00.418Z,975.96
2022-09-13T07:26:00.354Z,976.03
2022-09-13T07:27:00.333Z,976.02
2022-09-13T07:28:00.340Z,976.08
2022-09-13T07:29:00.324Z,976.05
2022-09-13T07:30:00.336Z,976.06
2022-09-13T07:31:00.321Z,976.12
2022-09-13T07:32:00.300Z,976.10
2022-09-13T07:33:00.281Z,976.05
2022-09-13T07:34:00.288Z,976.05
2022-09-13T07:35:00.288Z,976.09
2022-09-13T07:36:00.258Z,975.99
2022-09-13T07:37:00.343Z,976.06
2022-09-13T07:38:00.250Z,976.07
2022-09-13T07:39:00.221Z,976.05
2022-09-13T07:40:00.340Z,976.08
2022-09-13T07:41:00.207Z,976.15
2022-09-13T07:42:00.194Z,976.20
2022-09-13T07:43:00.184Z,976.17
2022-09-13T07:44:00.173Z,976.16
2022-09-13T07:45:00.209Z,976.12
2022-09-13T07:46:00.224Z,976.13
2022-09-13T07:47:00.163Z,976.08
2022-09-13T07:48:00.140Z,976.09
2022-09-13T07:49:00.140Z,976.20
2022-09-13T07:50:00.126Z,976.21
2022-09-13T07:51:00.130Z,976.17
2022-09-13T07:52:00.102Z,976.09
2022-09-13T07:53:00.093Z,976.11
2022-09-13T07:54:00.095Z,976.11
2022-09-13T07:55:00.073Z,976.11
2022-09-13T07:56:00.085Z,976.00
2022-09-13T07:57:00.054Z,976.02
2022-09-13T07:58:00.060Z,976.06
2022-09-13T07:59:00.051Z,976.02
2022-09-13T08:00:00.012Z,976.09
2022-09-13T08:01:00.071Z,976.10
2022-09-13T08:02:00.149Z,975.99
2022-09-13T08:02:59.985Z,975.97
2022-09-13T08:03:59.986Z,975.99
2022-09-13T08:05:00.011Z,976.03
2022-09-13T08:06:00.061Z,976.05
2022-09-13T08:06:59.940Z,975.99
2022-09-13T08:07:59.940Z,975.99
2022-09-13T08:08:59.919Z,976.03
2022-09-13T08:09:59.924Z,975.94
2022-09-13T08:10:59.934Z,975.98
2022-09-13T08:11:59.898Z,975.95
2022-09-13T08:12:59.886Z,975.97
2022-09-13T08:13:59.869Z,975.97
2022-09-13T08:14:59.880Z,975.98
2022-09-13T08:15:59.906Z,976.04
2022-09-13T08:16:59.872Z,976.05
2022-09-13T08:17:59.839Z,976.06
2022-09-13T08:18:59.882Z,976.07
2022-09-13T08:19:59.827Z,976.08
2022-09-13T08:20:59.807Z,976.14
2022-09-13T08:21:59.824Z,976.15
2022-09-13T08:22:59.806Z,976.07
2022-09-13T08:24:00.829Z,976.11
2022-09-13T08:24:59.768Z,976.12
2022-09-13T08:25:59.788Z,976.15
2022-09-13T08:26:59.739Z,976.16
2022-09-13T08:27:59.766Z,976.24
2022-09-13T08:28:59.726Z,976.17
2022-09-13T08:29:59.729Z,976.23
2022-09-13T08:30:59.755Z,976.22
2022-09-13T08:31:59.773Z,976.24
2022-09-13T08:32:59.718Z,976.24
2022-09-13T08:33:59.683Z,976.23
2022-09-13T08:34:59.702Z,976.24
2022-09-13T08:35:59.656Z,976.20
2022-09-13T08:36:59.640Z,976.19
2022-09-13T08:37:59.635Z,976.18
2022-09-13T08:38:59.673Z,976.11
2022-09-13T08:39:59.641Z,976.22
2022-09-13T08:40:59.596Z,976.22
2022-09-13T08:41:59.593Z,976.19
2022-09-13T08:42:59.581Z,976.25
2022-09-13T08:43:59.599Z,976.21
2022-09-13T08:44:59.560Z,976.14
2022-09-13T08:45:59.609Z,976.22
2022-09-13T08:46:59.545Z,976.26
2022-09-13T08:47:59.527Z,976.22
2022-09-13T08:48:59.529Z,976.23
2022-09-13T08:49:59.563Z,976.19
2022-09-13T08:50:59.504Z,976.17
2022-09-13T08:51:59.488Z,976.19
2022-09-13T08:52:59.483Z,976.18
2022-09-13T08:54:00.476Z,976.14
2022-09-13T08:54:59.499Z,976.11
2022-09-13T08:55:59.454Z,976.03
2022-09-13T08:56:59.449Z,976.02
2022-09-13T08:57:59.436Z,976.03
2022-09-13T08:58:59.417Z,976.05
2022-09-13T09:00:00.443Z,976.08
2022-09-13T09:00:59.426Z,976.12
2022-09-13T09:01:59.408Z,976.14
2022-09-13T09:02:59.481Z,976.09
2022-09-13T09:03:59.371Z,976.06
2022-09-13T09:04:59.376Z,976.10
2022-09-13T09:05:59.418Z,976.04
2022-09-13T09:06:59.338Z,976.06
2022-09-13T09:07:59.331Z,976.05
2022-09-13T09:08:59.327Z,976.06
2022-09-13T09:09:59.319Z,976.05
2022-09-13T09:10:59.329Z,976.02
2022-09-13T09:11:59.299Z,976.03
2022-09-13T09:12:59.285Z,976.08
2022-09-13T09:13:59.279Z,975.98
2022-09-13T09:14:59.272Z,975.94
2022-09-13T09:15:59.275Z,975.99
2022-09-13T09:16:59.284Z,976.02
2022-09-13T09:17:59.234Z,976.00
2022-09-13T09:18:59.237Z,976.01
2022-09-13T09:19:59.232Z,975.92
2022-09-13T09:20:59.204Z,976.00
2022-09-13T09:21:59.221Z,975.96
2022-09-13T09:22:59.190Z,976.01
2022-09-13T09:23:59.190Z,976.06
2022-09-13T09:24:59.174Z,976.06
2022-09-13T09:25:59.160Z,976.04
2022-09-13T09:26:59.161Z,976.06
2022-09-13T09:27:59.174Z,976.04
2022-09-13T09:28:59.152Z,976.04
2022-09-13T09:29:59.129Z,975.96
2022-09-13T09:31:00.203Z,975.96
2022-09-13T09:31:59.100Z,976.00
2022-09-13T09:32:59.120Z,975.93
2022-09-13T09:33:59.079Z,975.99
2022-09-13T09:34:59.065Z,975.97
2022-09-13T09:35:59.121Z,976.02
2022-09-13T09:36:59.043Z,975.97
2022-09-13T09:37:59.044Z,975.97
2022-09-13T09:38:59.064Z,975.98
2022-09-13T09:39:59.066Z,975.92
2022-09-13T09:40:59.014Z,975.86
2022-09-13T09:41:59.016Z,975.97
2022-09-13T09:42:59.002Z,975.90
2022-09-13T09:43:59.022Z,975.92
2022-09-13T09:44:58.977Z,975.83
2022-09-13T09:45:58.998Z,975.91
2022-09-13T09:46:58.976Z,975.86
2022-09-13T09:47:58.946Z,975.80
2022-09-13T09:48:58.929Z,975.78
2022-09-13T09:49:58.956Z,975.84
2022-09-13T09:50:58.921Z,975.81
2022-09-13T09:51:58.920Z,975.82
2022-09-13T09:52:58.906Z,975.84
2022-09-13T09:53:58.894Z,975.82
2022-09-13T09:54:58.889Z,975.83
2022-09-13T09:55:59.865Z,975.88
2022-09-13T09:56:58.860Z,975.84
2022-09-13T09:57:58.844Z,975.79
2022-09-13T09:58:58.856Z,975.73
2022-09-13T09:59:58.832Z,975.76
2022-09-13T10:00:58.991Z,975.74
2022-09-13T10:01:58.828Z,975.72
2022-09-13T10:02:58.798Z,975.68
2022-09-13T10:03:58.792Z,975.71
2022-09-13T10:04:58.789Z,975.72
2022-09-13T10:05:58.951Z,975.72
2022-09-13T10:06:58.847Z,975.65
2022-09-13T10:07:58.744Z,975.70
2022-09-13T10:08:58.745Z,975.72
2022-09-13T10:09:58.726Z,975.74
2022-09-13T10:10:58.718Z,975.67
2022-09-13T10:11:58.743Z,975.63
2022-09-13T10:12:58.706Z,975.67
2022-09-13T10:13:58.710Z,975.63
2022-09-13T10:14:58.701Z,975.70
2022-09-13T10:15:58.686Z,975.62
2022-09-13T10:16:58.742Z,975.59
2022-09-13T10:17:58.666Z,975.59
2022-09-13T10:18:58.709Z,975.63
2022-09-13T10:19:58.641Z,975.49
2022-09-13T10:20:58.637Z,975.54
2022-09-13T10:21:58.628Z,975.54
2022-09-13T10:22:58.645Z,975.54
2022-09-13T10:23:58.602Z,975.49
2022-09-13T10:24:58.599Z,975.43
2022-09-13T10:25:58.596Z,975.46
2022-09-13T10:26:58.586Z,975.46
2022-09-13T10:27:58.586Z,975.44
2022-09-13T10:28:58.553Z,975.46
2022-09-13T10:29:58.568Z,975.44
2022-09-13T10:30:58.660Z,975.41
2022-09-13T10:31:58.532Z,975.46
2022-09-13T10:32:58.520Z,975.40
2022-09-13T10:33:58.609Z,975.35
2022-09-13T10:34:58.495Z,975.32
2022-09-13T10:35:58.490Z,975.38
2022-09-13T10:36:58.481Z,975.38
2022-09-13T10:37:58.463Z,975.30
2022-09-13T10:38:58.490Z,975.32
2022-09-13T10:39:58.645Z,975.32
2022-09-13T10:40:58.445Z,975.25
2022-09-13T10:41:58.444Z,975.24
2022-09-13T10:42:58.411Z,975.30
2022-09-13T10:43:58.410Z,975.31
2022-09-13T10:44:58.420Z,975.30
2022-09-13T10:45:58.459Z,975.36
2022-09-13T10:46:58.373Z,975.32
2022-09-13T10:47:58.369Z,975.33
2022-09-13T10:48:58.364Z,975.30
2022-09-13T10:49:58.383Z,975.32
2022-09-13T10:50:58.354Z,975.31
2022-09-13T10:51:58.326Z,975.29
2022-09-13T10:52:59.320Z,975.27
2022-09-13T10:53:58.322Z,975.29
2022-09-13T10:54:58.311Z,975.26
2022-09-13T10:55:58.332Z,975.27
2022-09-13T10:56:58.288Z,975.20
2022-09-13T10:57:58.270Z,975.29
2022-09-13T10:58:58.261Z,975.26
2022-09-13T10:59:58.256Z,975.19
2022-09-13T11:00:58.399Z,975.25
2022-09-13T11:01:58.243Z,975.24
2022-09-13T11:02:58.228Z,975.23
2022-09-13T11:03:58.240Z,975.14
2022-09-13T11:04:58.221Z,975.15
2022-09-13T11:05:58.206Z,975.17
2022-09-13T11:07:01.711Z,975.14
2022-09-13T11:07:59.185Z,975.14
2022-09-13T11:08:58.174Z,975.18
2022-09-13T11:09:58.161Z,975.11
2022-09-13T11:10:58.155Z,975.09
2022-09-13T11:11:58.215Z,975.08
2022-09-13T11:12:58.127Z,975.10
2022-09-13T11:13:58.113Z,975.12
2022-09-13T11:14:58.107Z,975.08
2022-09-13T11:15:58.099Z,975.10
2022-09-13T11:16:58.120Z,975.06
2022-09-13T11:17:58.117Z,975.03
2022-09-13T11:18:58.073Z,975.08
2022-09-13T11:19:58.063Z,975.07
2022-09-13T11:20:58.050Z,975.10
2022-09-13T11:21:58.038Z,975.13
2022-09-13T11:22:58.053Z,975.09
2022-09-13T11:23:58.021Z,975.12
2022-09-13T11:24:58.006Z,975.06
2022-09-13T11:25:58.009Z,975.05
2022-09-13T11:26:57.993Z,975.02
2022-09-13T11:27:57.991Z,975.00
2022-09-13T11:28:58.017Z,975.00
2022-09-13T11:29:57.954Z,974.97
2022-09-13T11:30:57.954Z,974.99
2022-09-13T11:31:58.043Z,975.03
2022-09-13T11:32:57.933Z,975.01
2022-09-13T11:33:57.953Z,974.99
2022-09-13T11:34:57.907Z,974.95
2022-09-13T11:35:57.906Z,974.97
2022-09-13T11:36:57.893Z,974.95
2022-09-13T11:37:57.893Z,974.94
2022-09-13T11:38:57.873Z,974.96
2022-09-13T11:39:57.974Z,974.90
2022-09-13T11:40:57.860Z,974.97
2022-09-13T11:42:00.370Z,974.98
2022-09-13T11:42:57.841Z,974.98
2022-09-13T11:43:57.829Z,974.93
2022-09-13T11:44:57.844Z,974.96
2022-09-13T11:45:57.841Z,974.99
2022-09-13T11:46:57.808Z,974.91
2022-09-13T11:47:57.790Z,974.95
2022-09-13T11:48:57.771Z,974.97
2022-09-13T11:49:57.760Z,974.95
2022-09-13T11:50:57.791Z,974.90
2022-09-13T11:51:57.753Z,974.87
2022-09-13T11:52:57.738Z,974.92
2022-09-13T11:53:57.726Z,974.92
2022-09-13T11:54:57.716Z,975.01
2022-09-13T11:55:57.762Z,974.93
2022-09-13T11:56:57.702Z,975.03
2022-09-13T11:57:57.732Z,974.90
2022-09-13T11:58:57.694Z,974.93
2022-09-13T11:59:57.735Z,974.95
2022-09-13T12:00:57.664Z,974.93
2022-09-13T12:01:57.805Z,974.90
2022-09-13T12:02:57.840Z,974.87
2022-09-13T12:03:57.637Z,974.87
2022-09-13T12:05:18.437Z,974.87
2022-09-13T12:05:59.629Z,974.91
2022-09-13T12:06:57.681Z,974.89
2022-09-13T12:07:57.591Z,974.84
2022-09-13T12:08:57.590Z,974.82
2022-09-13T12:09:57.612Z,974.85
2022-09-13T12:10:57.587Z,974.86
2022-09-13T12:11:57.574Z,974.80
2022-09-13T12:12:57.588Z,974.83
2022-09-13T12:13:57.545Z,974.81
2022-09-13T12:14:57.540Z,974.80
2022-09-13T12:15:57.519Z,974.83
2022-09-13T12:16:57.581Z,974.81
2022-09-13T12:17:57.538Z,974.81
2022-09-13T12:18:57.499Z,974.81
2022-09-13T12:19:57.499Z,974.83
2022-09-13T12:20:57.491Z,974.79
2022-09-13T12:21:57.484Z,974.74
2022-09-13T12:22:57.467Z,974.78
2022-09-13T12:23:57.498Z,974.76
2022-09-13T12:24:57.465Z,974.77
2022-09-13T12:25:57.436Z,974.61
2022-09-13T12:26:57.428Z,974.62
2022-09-13T12:27:57.407Z,974.68